createdAt,value
2018-03-06T00:01:48.995Z,30.05
2018-03-06T00:04:16.618Z,31.58
2018-03-06T00:06:44.231Z,32.10
2018-03-06T00:09:11.838Z,33.72
2018-03-06T00:11:39.448Z,30.27
2018-03-06T00:14:07.057Z,31.98
2018-03-06T00:16:34.679Z,36.00
2018-03-06T00:19:02.300Z,32.28
2018-03-06T00:21:30.682Z,32.47
2018-03-06T00:23:59.010Z,31.70
2018-03-06T00:26:27.435Z,35.47
2018-03-06T00:28:55.014Z,34.42
2018-03-06T00:31:23.337Z,34.15
2018-03-06T00:33:51.734Z,34.13
2018-03-06T00:36:19.341Z,33.58
2018-03-06T00:38:46.970Z,31.30
2018-03-06T00:41:15.399Z,32.38
2018-03-06T00:43:43.051Z,31.75
2018-03-06T00:46:11.578Z,30.80
2018-03-06T00:48:39.982Z,31.58
2018-03-06T00:51:07.598Z,33.88
2018-03-06T00:53:35.927Z,32.95
2018-03-06T00:56:04.235Z,34.97
2018-03-06T00:58:32.535Z,31.08
2018-03-06T01:01:00.163Z,33.28
2018-03-06T01:03:27.767Z,32.97
2018-03-06T01:05:56.172Z,31.85
2018-03-06T01:08:24.494Z,34.80
2018-03-06T01:10:52.899Z,32.90
2018-03-06T01:13:21.226Z,33.78
2018-03-06T01:15:48.887Z,31.62
2018-03-06T01:18:16.530Z,30.60
2018-03-06T01:20:45.077Z,31.98
2018-03-06T01:23:12.691Z,35.17
2018-03-06T01:25:40.995Z,32.30
2018-03-06T01:28:08.598Z,34.67
2018-03-06T01:30:36.192Z,32.85
2018-03-06T01:33:03.807Z,32.33
2018-03-06T01:35:31.410Z,33.38
2018-03-06T01:37:59.842Z,30.90
2018-03-06T01:40:28.239Z,32.17
2018-03-06T01:42:56.035Z,34.25
2018-03-06T01:45:24.218Z,31.87
2018-03-06T01:47:52.793Z,34.08
2018-03-06T01:50:20.402Z,30.27
2018-03-06T01:52:48.009Z,33.95
2018-03-06T01:55:16.100Z,31.65
2018-03-06T01:57:44.567Z,33.70
2018-03-06T02:00:12.923Z,31.83
2018-03-06T02:02:40.558Z,32.65
2018-03-06T02:05:08.930Z,31.05
2018-03-06T02:07:36.571Z,34.28
2018-03-06T02:10:04.174Z,33.90
2018-03-06T02:12:31.786Z,34.58
2018-03-06T02:15:00.167Z,38.00
2018-03-06T02:17:28.478Z,36.78
2018-03-06T02:19:56.079Z,35.40
2018-03-06T02:22:24.619Z,33.97
2018-03-06T02:24:52.232Z,35.28
2018-03-06T02:27:19.889Z,33.80
2018-03-06T02:29:48.334Z,34.90
2018-03-06T02:32:16.772Z,34.17
2018-03-06T02:34:45.226Z,35.47
2018-03-06T02:37:13.548Z,35.40
2018-03-06T02:39:41.200Z,38.35
2018-03-06T02:42:09.511Z,33.60
2018-03-06T02:44:37.118Z,39.08
2018-03-06T02:47:05.672Z,33.75
2018-03-06T02:49:33.326Z,40.65
2018-03-06T02:52:01.639Z,38.20
2018-03-06T02:54:29.993Z,42.22
2018-03-06T02:56:57.612Z,39.30
2018-03-06T02:59:26.158Z,37.15
2018-03-06T03:01:54.495Z,38.10
2018-03-06T03:04:22.842Z,33.70
2018-03-06T03:06:51.282Z,36.05
2018-03-06T03:09:20.966Z,34.78
2018-03-06T03:11:48.578Z,35.50
2018-03-06T03:14:16.952Z,34.78
2018-03-06T03:16:44.573Z,36.45
2018-03-06T03:19:12.175Z,35.72
2018-03-06T03:21:39.786Z,34.13
2018-03-06T03:24:07.403Z,38.05
2018-03-06T03:26:35.051Z,34.33
2018-03-06T03:29:02.658Z,41.40
2018-03-06T03:31:30.276Z,38.28
2018-03-06T03:33:57.883Z,36.10
2018-03-06T03:36:25.482Z,36.03
2018-03-06T03:38:53.104Z,38.80
2018-03-06T03:41:20.714Z,36.50
2018-03-06T03:43:48.378Z,36.85
2018-03-06T03:46:15.992Z,36.85
2018-03-06T03:48:45.431Z,35.20
2018-03-06T03:51:13.827Z,37.92
2018-03-06T03:53:41.449Z,36.95
2018-03-06T03:56:10.970Z,39.13
2018-03-06T03:58:38.583Z,34.83
2018-03-06T04:01:06.187Z,34.92
2018-03-06T04:03:33.798Z,34.72
2018-03-06T04:06:01.986Z,38.72
2018-03-06T04:08:29.591Z,36.00
2018-03-06T04:10:57.210Z,36.30
2018-03-06T04:13:24.816Z,35.78
2018-03-06T04:15:52.465Z,39.63
2018-03-06T04:18:20.086Z,37.90
2018-03-06T04:20:47.691Z,32.30
2018-03-06T04:23:15.366Z,34.70
2018-03-06T04:25:43.014Z,36.15
2018-03-06T04:28:11.652Z,40.83
2018-03-06T04:30:39.306Z,37.80
2018-03-06T04:33:06.915Z,35.45
2018-03-06T04:35:34.523Z,39.05
2018-03-06T04:38:02.143Z,37.67
2018-03-06T04:40:29.793Z,42.28
2018-03-06T04:42:57.392Z,41.37
2018-03-06T04:45:25.950Z,44.42
2018-03-06T04:47:54.379Z,36.05
2018-03-06T04:50:22.792Z,36.60
2018-03-06T04:52:51.233Z,43.67
2018-03-06T04:55:19.617Z,39.50
2018-03-06T04:57:47.659Z,42.72
2018-03-06T05:00:15.282Z,42.80
2018-03-06T05:02:42.919Z,39.13
2018-03-06T05:05:11.371Z,40.35
2018-03-06T05:07:39.731Z,42.35
2018-03-06T05:10:07.346Z,38.60
2018-03-06T05:12:35.938Z,38.53
2018-03-06T05:15:04.322Z,47.90
2018-03-06T05:17:31.943Z,41.72
2018-03-06T05:19:59.604Z,39.83
2018-03-06T05:22:27.223Z,38.45
2018-03-06T05:24:54.863Z,36.45
2018-03-06T05:27:22.490Z,36.85
2018-03-06T05:29:50.927Z,40.72
2018-03-06T05:32:18.588Z,38.80
2018-03-06T05:34:46.953Z,44.38
2018-03-06T05:37:15.456Z,42.72
2018-03-06T05:39:44.318Z,43.70
2018-03-06T05:42:12.800Z,45.12
2018-03-06T05:44:41.190Z,43.95
2018-03-06T05:47:08.875Z,43.63
2018-03-06T05:49:36.684Z,40.67
2018-03-06T05:52:04.890Z,43.20
2018-03-06T05:54:32.618Z,43.47
2018-03-06T05:57:00.981Z,43.42
2018-03-06T05:59:28.664Z,38.58
2018-03-06T06:01:56.312Z,40.75
2018-03-06T06:04:24.057Z,40.40
2018-03-06T06:06:52.582Z,39.97
2018-03-06T06:09:21.115Z,42.95
2018-03-06T06:11:48.776Z,39.70
2018-03-06T06:14:16.475Z,39.85
2018-03-06T06:16:44.179Z,41.70
2018-03-06T06:19:11.799Z,46.72
2018-03-06T06:21:40.353Z,41.80
2018-03-06T06:24:08.751Z,39.95
2018-03-06T06:26:36.380Z,43.92
2018-03-06T06:29:03.974Z,44.90
2018-03-06T06:31:32.513Z,45.03
2018-03-06T06:34:00.103Z,41.33
2018-03-06T06:36:27.733Z,43.70
2018-03-06T06:38:55.332Z,42.55
2018-03-06T06:41:23.136Z,41.63
2018-03-06T06:43:50.728Z,47.50
2018-03-06T06:46:18.320Z,40.75
2018-03-06T06:48:45.943Z,42.08
2018-03-06T06:51:13.536Z,42.75
2018-03-06T06:53:41.130Z,43.15
2018-03-06T06:56:08.714Z,42.13
2018-03-06T06:58:37.298Z,41.88
2018-03-06T07:01:04.887Z,42.20
2018-03-06T07:03:32.471Z,43.75
2018-03-06T07:06:00.094Z,41.53
2018-03-06T07:08:27.719Z,41.15
2018-03-06T07:10:55.317Z,42.05
2018-03-06T07:13:22.921Z,41.65
2018-03-06T07:15:50.505Z,41.28
2018-03-06T07:18:18.134Z,46.40
2018-03-06T07:20:45.728Z,40.80
2018-03-06T07:23:13.350Z,40.65
2018-03-06T07:25:40.947Z,38.58
2018-03-06T07:28:08.571Z,42.42
2018-03-06T07:30:36.154Z,43.70
2018-03-06T07:33:03.748Z,38.78
2018-03-06T07:35:31.362Z,39.72
2018-03-06T07:37:58.949Z,41.05
2018-03-06T07:40:27.339Z,40.25
2018-03-06T07:42:55.710Z,40.95
2018-03-06T07:45:23.341Z,38.45
2018-03-06T07:47:50.959Z,43.15
2018-03-06T07:50:18.542Z,38.05
2018-03-06T07:52:46.135Z,39.22
2018-03-06T07:55:13.760Z,38.95
2018-03-06T07:57:41.342Z,42.45
2018-03-06T08:00:08.979Z,42.55
2018-03-06T08:02:36.559Z,40.40
2018-03-06T08:05:04.165Z,39.33
2018-03-06T08:07:31.759Z,41.10
2018-03-06T08:09:59.358Z,42.83
2018-03-06T08:12:26.944Z,39.47
2018-03-06T08:14:55.499Z,43.00
2018-03-06T08:17:23.890Z,39.78
2018-03-06T08:19:52.427Z,41.83
2018-03-06T08:22:20.806Z,39.95
2018-03-06T08:24:48.422Z,41.40
2018-03-06T08:27:16.011Z,40.80
2018-03-06T08:29:44.340Z,40.53
2018-03-06T08:32:12.844Z,37.67
2018-03-06T08:34:40.433Z,40.30
2018-03-06T08:37:08.959Z,39.17
2018-03-06T08:39:37.331Z,38.83
2018-03-06T08:42:04.927Z,38.40
2018-03-06T08:44:33.370Z,39.42
2018-03-06T08:47:00.952Z,37.87
2018-03-06T08:49:28.571Z,39.17
2018-03-06T08:51:56.155Z,39.03
2018-03-06T08:54:23.742Z,40.80
2018-03-06T08:56:51.354Z,37.83
2018-03-06T08:59:18.932Z,39.33
2018-03-06T09:01:46.518Z,39.70
2018-03-06T09:04:14.098Z,39.70
2018-03-06T09:06:41.710Z,38.30
2018-03-06T09:09:09.285Z,39.23
2018-03-06T09:11:36.907Z,40.80
2018-03-06T09:14:04.494Z,41.37
2018-03-06T09:16:32.079Z,41.67
2018-03-06T09:19:00.443Z,41.57
2018-03-06T09:21:28.026Z,40.67
2018-03-06T09:23:55.607Z,40.77
2018-03-06T09:26:23.196Z,38.30
2018-03-06T09:28:50.783Z,38.07
2018-03-06T09:31:18.367Z,42.07
2018-03-06T09:33:45.943Z,36.73
2018-03-06T09:36:13.523Z,38.20
2018-03-06T09:38:41.098Z,37.07
2018-03-06T09:41:08.674Z,37.63
2018-03-06T09:43:36.247Z,36.37
2018-03-06T09:46:03.831Z,38.70
2018-03-06T09:48:31.406Z,37.90
2018-03-06T09:50:59.894Z,38.33
2018-03-06T09:53:27.466Z,36.50
2018-03-06T09:55:55.051Z,38.07
2018-03-06T09:58:22.631Z,36.60
2018-03-06T10:00:50.210Z,35.07
2018-03-06T10:03:17.820Z,35.80
2018-03-06T10:05:45.394Z,37.67
2018-03-06T10:08:13.760Z,35.53
2018-03-06T10:10:41.342Z,37.40
2018-03-06T10:13:08.918Z,36.63
2018-03-06T10:15:36.498Z,38.50
2018-03-06T10:18:04.078Z,38.47
2018-03-06T10:20:31.698Z,35.87
2018-03-06T10:22:59.287Z,37.00
2018-03-06T10:25:26.862Z,36.30
2018-03-06T10:27:54.463Z,38.77
2018-03-06T10:30:22.043Z,37.63
2018-03-06T10:32:49.632Z,38.67
2018-03-06T10:35:17.228Z,35.43
2018-03-06T10:37:44.828Z,40.20
2018-03-06T10:40:12.404Z,37.33
2018-03-06T10:42:39.988Z,36.30
2018-03-06T10:45:07.560Z,38.63
2018-03-06T10:47:35.142Z,37.00
2018-03-06T10:50:02.723Z,36.50
2018-03-06T10:52:30.307Z,39.33
2018-03-06T10:54:57.892Z,38.57
2018-03-06T10:57:25.463Z,38.67
2018-03-06T10:59:53.041Z,37.43
2018-03-06T11:02:20.618Z,37.60
2018-03-06T11:04:48.194Z,39.53
2018-03-06T11:07:15.778Z,36.80
2018-03-06T11:09:43.362Z,35.20
2018-03-06T11:12:10.943Z,36.97
2018-03-06T11:14:38.553Z,36.90
2018-03-06T11:17:06.148Z,38.70
2018-03-06T11:19:33.731Z,38.97
2018-03-06T11:22:01.311Z,37.77
2018-03-06T11:24:28.923Z,39.20
2018-03-06T11:26:56.499Z,39.93
2018-03-06T11:29:24.106Z,40.40
2018-03-06T11:31:51.688Z,38.87
2018-03-06T11:34:19.307Z,37.23
2018-03-06T11:36:46.887Z,38.67
2018-03-06T11:39:14.475Z,37.83
2018-03-06T11:41:42.055Z,36.70
2018-03-06T11:44:09.640Z,40.00
2018-03-06T11:46:37.224Z,40.13
2018-03-06T11:49:04.811Z,40.30
2018-03-06T11:51:32.390Z,41.93
2018-03-06T11:53:59.972Z,38.20
2018-03-06T11:56:27.560Z,38.40
2018-03-06T11:58:55.191Z,40.70
2018-03-06T12:01:22.807Z,38.80
2018-03-06T12:03:50.383Z,43.20
2018-03-06T12:06:17.962Z,40.10
2018-03-06T12:08:45.543Z,39.97
2018-03-06T12:11:13.122Z,45.33
2018-03-06T12:13:40.722Z,40.77
2018-03-06T12:16:08.304Z,41.03
2018-03-06T12:18:35.924Z,39.83
2018-03-06T12:21:03.492Z,41.73
2018-03-06T12:23:31.076Z,40.37
2018-03-06T12:25:58.651Z,42.00
2018-03-06T12:28:26.227Z,39.63
2018-03-06T12:30:53.805Z,43.77
2018-03-06T12:33:21.390Z,41.70
2018-03-06T12:35:48.974Z,42.00
2018-03-06T12:38:17.463Z,40.90
2018-03-06T12:40:45.040Z,37.77
2018-03-06T12:43:12.615Z,39.50
2018-03-06T12:45:40.202Z,42.80
2018-03-06T12:48:07.788Z,42.77
2018-03-06T12:50:35.372Z,40.17
2018-03-06T12:53:03.735Z,45.80
2018-03-06T12:55:31.324Z,46.93
2018-03-06T12:57:58.898Z,42.00
2018-03-06T13:00:26.478Z,45.03
2018-03-06T13:02:54.058Z,47.20
2018-03-06T13:05:21.637Z,44.83
2018-03-06T13:07:49.218Z,48.10
2018-03-06T13:10:16.799Z,47.50
2018-03-06T13:12:44.414Z,44.50
2018-03-06T13:15:12.769Z,50.67
2018-03-06T13:17:40.348Z,47.73
2018-03-06T13:20:07.930Z,52.23
2018-03-06T13:22:35.547Z,55.30
2018-03-06T13:25:03.139Z,56.67
2018-03-06T13:27:30.718Z,55.37
2018-03-06T13:29:58.309Z,55.83
2018-03-06T13:32:25.894Z,52.63
2018-03-06T13:34:53.483Z,57.20
2018-03-06T13:37:21.108Z,56.43
2018-03-06T13:39:48.709Z,54.87
2018-03-06T13:42:16.307Z,58.37
2018-03-06T13:44:44.779Z,53.27
2018-03-06T13:47:12.359Z,54.80
2018-03-06T13:49:39.949Z,59.80
2018-03-06T13:52:07.535Z,55.60
2018-03-06T13:54:35.149Z,54.73
2018-03-06T13:57:02.734Z,55.97
2018-03-06T13:59:30.469Z,55.53
2018-03-06T14:01:58.054Z,58.50
2018-03-06T14:04:25.643Z,62.47
2018-03-06T14:06:53.220Z,57.80
2018-03-06T14:09:20.799Z,54.33
2018-03-06T14:11:48.385Z,54.40
2018-03-06T14:14:15.959Z,59.87
2018-03-06T14:16:43.539Z,59.03
2018-03-06T14:19:11.124Z,61.50
2018-03-06T14:21:38.715Z,61.20
2018-03-06T14:24:06.298Z,59.17
2018-03-06T14:26:33.886Z,55.00
2018-03-06T14:29:01.467Z,54.23
2018-03-06T14:31:29.087Z,53.97
2018-03-06T14:33:56.666Z,53.80
2018-03-06T14:36:24.252Z,56.30
2018-03-06T14:38:51.831Z,53.30
2018-03-06T14:41:19.452Z,58.10
2018-03-06T14:43:47.046Z,56.00
2018-03-06T14:46:14.623Z,56.80
2018-03-06T14:48:42.210Z,51.77
2018-03-06T14:51:09.815Z,54.90
2018-03-06T14:53:38.195Z,51.77
2018-03-06T14:56:05.774Z,53.17
2018-03-06T14:58:33.380Z,54.57
2018-03-06T15:01:01.756Z,57.03
2018-03-06T15:03:29.338Z,53.07
2018-03-06T15:05:56.923Z,59.27
2018-03-06T15:08:24.511Z,60.40
2018-03-06T15:10:52.095Z,63.70
2018-03-06T15:13:19.692Z,61.97
2018-03-06T15:15:47.275Z,58.60
2018-03-06T15:18:14.850Z,67.30
2018-03-06T15:20:42.427Z,64.43
2018-03-06T15:23:10.012Z,65.17
2018-03-06T15:25:37.595Z,65.60
2018-03-06T15:28:05.892Z,65.50
2018-03-06T15:30:33.487Z,70.30
2018-03-06T15:33:02.031Z,64.17
2018-03-06T15:35:30.343Z,67.30
2018-03-06T15:37:57.919Z,73.27
2018-03-06T15:40:25.535Z,66.60
2018-03-06T15:42:53.126Z,69.53
2018-03-06T15:45:20.710Z,71.33
2018-03-06T15:47:48.294Z,72.10
2018-03-06T15:50:16.906Z,70.47
2018-03-06T15:52:44.527Z,76.53
2018-03-06T15:55:12.112Z,71.87
2018-03-06T15:57:39.695Z,71.40
2018-03-06T16:00:08.195Z,70.10
2018-03-06T16:02:35.908Z,68.37
2018-03-06T16:05:04.199Z,74.97
2018-03-06T16:07:31.779Z,75.53
2018-03-06T16:09:59.410Z,76.23
2018-03-06T16:12:27.004Z,77.80
2018-03-06T16:14:54.587Z,76.60
2018-03-06T16:17:22.171Z,74.07
2018-03-06T16:19:52.007Z,80.87
2018-03-06T16:22:22.492Z,77.80
2018-03-06T16:24:52.993Z,87.90
2018-03-06T16:27:23.523Z,78.30
2018-03-06T16:29:52.161Z,80.70
2018-03-06T16:32:19.815Z,80.00
2018-03-06T16:34:47.418Z,79.23
2018-03-06T16:37:15.003Z,85.40
2018-03-06T16:39:43.512Z,88.00
2018-03-06T16:42:11.912Z,81.87
2018-03-06T16:44:40.510Z,79.70
2018-03-06T16:47:08.135Z,76.68
2018-03-06T16:49:35.717Z,76.80
2018-03-06T16:52:03.303Z,72.43
2018-03-06T16:54:30.916Z,72.43
2018-03-06T16:56:58.554Z,75.37
2018-03-06T16:59:26.235Z,80.73
2018-03-06T17:01:53.967Z,78.13
2018-03-06T17:04:21.566Z,77.23
2018-03-06T17:06:49.179Z,76.40
2018-03-06T17:09:16.765Z,77.33
2018-03-06T17:11:44.447Z,73.13
2018-03-06T17:14:12.026Z,74.70
2018-03-06T17:16:39.608Z,69.47
2018-03-06T17:19:07.195Z,71.53
2018-03-06T17:21:34.779Z,77.33
2018-03-06T17:24:02.376Z,75.93
2018-03-06T17:26:29.961Z,71.60
2018-03-06T17:28:57.558Z,76.00
2018-03-06T17:31:25.955Z,71.97
2018-03-06T17:33:54.453Z,72.97
2018-03-06T17:36:23.109Z,79.50
2018-03-06T17:38:50.708Z,77.95
2018-03-06T17:41:19.298Z,70.50
2018-03-06T17:43:46.968Z,76.93
2018-03-06T17:46:14.556Z,71.40
2018-03-06T17:48:42.439Z,70.33
2018-03-06T17:51:10.089Z,69.53
2018-03-06T17:53:38.271Z,73.60
2018-03-06T17:56:05.850Z,70.40
2018-03-06T17:58:33.435Z,69.07
2018-03-06T18:01:01.278Z,67.93
2018-03-06T18:03:29.790Z,66.18
2018-03-06T18:05:57.494Z,63.83
2018-03-06T18:08:25.163Z,68.60
2018-03-06T18:10:52.755Z,67.77
2018-03-06T18:13:20.390Z,69.53
2018-03-06T18:15:48.035Z,70.15
2018-03-06T18:18:19.409Z,64.10
2018-03-06T18:20:47.170Z,63.75
2018-03-06T18:23:14.760Z,61.40
2018-03-06T18:25:42.911Z,66.60
2018-03-06T18:28:10.640Z,65.40
2018-03-06T18:30:38.230Z,65.03
2018-03-06T18:33:05.819Z,61.55
2018-03-06T18:35:34.104Z,62.83
2018-03-06T18:38:03.634Z,63.80
2018-03-06T18:40:31.300Z,64.07
2018-03-06T18:42:58.947Z,64.37
2018-03-06T18:45:27.468Z,60.60
2018-03-06T18:47:55.080Z,59.63
2018-03-06T18:50:34.910Z,61.47
2018-03-06T18:53:02.507Z,57.37
2018-03-06T18:55:30.998Z,60.90
2018-03-06T18:57:58.591Z,58.03
2018-03-06T19:03:46.007Z,55.80
2018-03-06T19:06:22.387Z,57.22
2018-03-06T19:08:49.975Z,52.80
2018-03-06T19:11:17.578Z,56.10
2018-03-06T19:13:45.176Z,52.77
2018-03-06T19:16:13.562Z,53.63
2018-03-06T19:18:41.136Z,53.73
2018-03-06T19:21:08.725Z,52.38
2018-03-06T19:23:36.399Z,54.10
2018-03-06T19:26:03.984Z,50.97
2018-03-06T19:28:31.613Z,52.10
2018-03-06T19:30:59.210Z,52.10
2018-03-06T19:33:26.855Z,49.63
2018-03-06T19:35:55.207Z,50.40
2018-03-06T19:38:23.758Z,49.60
2018-03-06T19:40:51.347Z,52.90
2018-03-06T19:43:18.925Z,51.23
2018-03-06T19:45:47.300Z,54.30
2018-03-06T19:48:14.891Z,51.20
2018-03-06T19:50:43.207Z,51.03
2018-03-06T19:53:11.609Z,51.20
2018-03-06T19:55:40.199Z,51.80
2018-03-06T19:58:07.883Z,54.33
2018-03-06T20:00:35.453Z,49.17
2018-03-06T20:03:03.051Z,51.10
2018-03-06T20:05:30.674Z,50.67
2018-03-06T20:07:58.287Z,48.47
2018-03-06T20:10:25.870Z,53.00
2018-03-06T20:12:53.502Z,49.37
2018-03-06T20:15:21.987Z,49.33
2018-03-06T20:17:49.602Z,46.47
2018-03-06T20:20:17.183Z,49.80
2018-03-06T20:22:45.672Z,44.83
2018-03-06T20:25:19.132Z,49.10
2018-03-06T20:27:46.711Z,47.70
2018-03-06T20:30:19.999Z,47.60
2018-03-06T20:32:53.385Z,47.97
2018-03-06T20:35:21.051Z,46.20
2018-03-06T20:37:49.585Z,43.03
2018-03-06T20:40:22.690Z,42.90
2018-03-06T20:42:51.132Z,46.88
2018-03-06T20:45:18.900Z,42.97
2018-03-06T20:47:46.539Z,41.07
2018-03-06T20:50:14.247Z,44.77
2018-03-06T20:52:47.618Z,45.75
2018-03-06T20:55:15.262Z,42.80
2018-03-06T20:57:42.876Z,48.00
2018-03-06T21:00:10.486Z,43.50
2018-03-06T21:02:38.103Z,43.50
2018-03-06T21:05:05.711Z,45.63
2018-03-06T21:07:33.375Z,44.60
2018-03-06T21:10:00.953Z,47.17
2018-03-06T21:12:28.539Z,44.47
2018-03-06T21:14:56.138Z,47.55
2018-03-06T21:17:23.719Z,50.00
2018-03-06T21:19:51.303Z,48.00
2018-03-06T21:22:18.889Z,46.23
2018-03-06T21:24:46.482Z,48.08
2018-03-06T21:27:14.071Z,46.50
2018-03-06T21:29:41.667Z,46.37
2018-03-06T21:32:09.282Z,45.53
2018-03-06T21:34:36.902Z,43.20
2018-03-06T21:37:04.518Z,43.10
2018-03-06T21:39:32.131Z,46.50
2018-03-06T21:41:59.754Z,44.77
2018-03-06T21:44:27.353Z,46.80
2018-03-06T21:46:54.975Z,45.30
2018-03-06T21:49:23.299Z,45.12
2018-03-06T21:51:51.961Z,43.30
2018-03-06T21:54:20.567Z,44.97
2018-03-06T21:56:48.987Z,43.58
2018-03-06T21:59:16.577Z,42.17
2018-03-06T22:01:44.166Z,44.83
2018-03-06T22:04:11.747Z,45.27
2018-03-06T22:06:39.327Z,43.50
2018-03-06T22:09:06.908Z,42.90
2018-03-06T22:11:34.550Z,44.17
2018-03-06T22:14:02.249Z,44.40
2018-03-06T22:16:30.604Z,44.83
2018-03-06T22:18:58.186Z,44.40
2018-03-06T22:21:25.827Z,43.20
2018-03-06T22:23:53.420Z,42.13
2018-03-06T22:26:21.042Z,40.05
2018-03-06T22:28:48.619Z,41.47
2018-03-06T22:31:16.243Z,42.10
2018-03-06T22:33:43.879Z,42.58
2018-03-06T22:36:11.471Z,42.45
2018-03-06T22:38:39.057Z,44.57
2018-03-06T22:41:06.648Z,45.60
2018-03-06T22:43:34.230Z,45.13
2018-03-06T22:46:02.636Z,41.25
2018-03-06T22:48:30.216Z,42.43
2018-03-06T22:50:57.842Z,41.42
2018-03-06T22:53:25.428Z,43.35
2018-03-06T22:55:53.196Z,43.05
2018-03-06T22:58:20.780Z,44.90
2018-03-06T23:00:49.211Z,44.15
2018-03-06T23:03:17.651Z,42.97
2018-03-06T23:05:46.070Z,46.30
2018-03-06T23:08:14.366Z,43.13
2018-03-06T23:10:42.795Z,43.65
2018-03-06T23:13:10.435Z,40.70
2018-03-06T23:15:38.023Z,44.30
2018-03-06T23:18:05.615Z,41.75
2018-03-06T23:20:34.128Z,42.00
2018-03-06T23:23:02.499Z,38.45
2018-03-06T23:25:30.082Z,39.30
2018-03-06T23:27:58.587Z,41.10
2018-03-06T23:30:26.943Z,39.13
2018-03-06T23:32:54.567Z,41.30
2018-03-06T23:35:23.078Z,39.57
2018-03-06T23:37:51.347Z,42.60
2018-03-06T23:46:00.146Z,39.17
2018-03-06T23:48:27.691Z,39.37
2018-03-06T23:50:55.286Z,39.33
2018-03-06T23:53:22.834Z,39.83
2018-03-06T23:55:51.186Z,39.93
2018-03-06T23:58:19.582Z,40.08
